Hudson, Pennsylvania
Current Conditions -  °F | °C
As of 5:54 AM on Saturday 20 Dec 2014 (Local Time) from KAVP Reporting Station
Overcast Overcast  
Wind Chill: 29°   Ceiling: 2100
Heat Index: 29°   Visibility: 10mi
Dew Point: 20°   Wind: 3mph
Humidity: 69%   Direction: 330°NNW
Pressure: 30.22"   Gusts: NA
Location:  41.2711°N, 75.8417°W
Report Text: KAVP 201054Z AUTO 33003KT 10SM OVC021 M02/M07 A3022 RMK AO2 SLP241 T10171067
Loading
Personal Weather Stations






























Interactive Weather Map New forecast layout! Learn more

10-Day Weather Forecast

Advertisements
Track Severe Weather on mobile